• Join FlightAware (Why Join?)
  • Login
  • US Flag 
05:49AM EST


 

Airport Tracker/Info


-or-


 

Live Flight TrackerFlight Track Log ✈ FSR411 ✈ 29-Oct-2013 ✈ KOSU - KCMI

Flight Track Log - Related Links

Times and Time Zones

All times are in EDT time to prevent confusion due to time zone crossing. See the FSR411 flight status page for this flight to view local times or setup timezone preferences in your user account.

Time Position Orientation Groundspeed Altitude Reporting Facility
EDT Latitude Longitude Course Direction KTS MPH feet Rate Location/Type
02:02PM 40.0758 -83.0831 266° West 154 177 1,200  Level Indianapolis Center
02:03PM 40.0731 -83.1347 266° West 204 235 3,000 2,580 Climbing Indianapolis Center
02:03PM 40.0731 -83.1433 270° West 195 224 3,500 3,360 Climbing Indianapolis Center
02:04PM 40.0667 -83.2244 264° West 213 245 7,100 3,240 Climbing Indianapolis Center
02:05PM 40.0567 -83.3200 262° West 267 307 10,200 2,220 Climbing Indianapolis Center
02:06PM 40.0447 -83.4339 262° West 316 364 11,700 1,080 Climbing Indianapolis Center
02:08PM 40.0498 -83.5625 273° West  Level FlightAware Approximate
02:08PM 40.0086 -83.7125 273° West 363 418 13,600  Level Indianapolis Center
02:09PM 39.9944 -83.8414 262° West 363 418 18,000 3,780 Climbing Indianapolis Center
02:11PM 39.9808 -83.9722 262° West 365 420 21,500 2,280 Climbing Indianapolis Center
02:12PM 39.9619 -84.1136 260° West 395 455 22,800 1,200 Climbing Indianapolis Center
02:13PM 39.9381 -84.2839 260° West 398 458 24,000 540 Climbing Indianapolis Center
02:14PM 39.9408 -84.4261 272° West 395 455 24,000  Level Indianapolis Center
02:15PM 39.9472 -84.5719 273° West 403 464 24,000 -300 Level Indianapolis Center
02:16PM 39.9539 -84.7200 273° West 409 471 23,500 -960 Descending Indianapolis Center
02:17PM 39.9597 -84.8639 273° West 401 461 22,100 -780 Descending Indianapolis Center
02:18PM 39.9656 -85.0297 273° West 392 451 22,000 -60 Descending Indianapolis Center
02:19PM 39.9700 -85.1678 272° West 385 443 22,000  Level Indianapolis Center
02:20PM 39.9764 -85.3089 273° West 391 450 22,000  Level Indianapolis Center
02:21PM 39.9803 -85.4494 272° West 390 449 22,000  Level Indianapolis Center
02:22PM 39.9847 -85.5897 272° West 390 449 22,000  Level Indianapolis Center
02:23PM 39.9900 -85.7297 273° West 390 449 22,000  Level Indianapolis Center
02:24PM 39.9944 -85.8989 272° West 392 451 22,000  Level Indianapolis Center
02:25PM 39.9992 -86.0353 273° West 385 443 22,000 -600 Level Indianapolis Center
02:26PM 40.0019 -86.1617 272° West 359 413 20,800 -1,020 Descending Indianapolis Center
02:27PM 40.0058 -86.2925 272° West 365 420 20,000 -420 Descending Indianapolis Center
02:28PM 40.0092 -86.4508 272° West 370 426 20,000 -660 Level Indianapolis Center
02:29PM 40.0125 -86.5839 272° West 371 427 18,700 -1,560 Descending Indianapolis Center
02:30PM 40.0158 -86.7164 272° West 370 426 16,800 -1,860 Descending Indianapolis Center
02:31PM 40.0178 -86.8461 271° West 365 420 14,900 -1,320 Descending Indianapolis Center
02:32PM 40.0208 -86.9686 272° West 349 402 14,100 -300 Descending Indianapolis Center
02:34PM 40.0264 -87.2472 272° West 350 403 14,000 -300 Descending Chicago Center
02:35PM 40.0275 -87.3739 271° West 354 407 13,300 -1,140 Descending Indianapolis Center
02:36PM 40.0294 -87.4953 271° West 342 394 11,700 -1,140 Descending Indianapolis Center
02:37PM 40.0317 -87.6172 271° West 339 390 11,000 -900 Descending Indianapolis Center
02:38PM 40.0317 -87.7503 270° West 303 349 9,900 -1,500 Descending Indianapolis Center
02:39PM 40.0336 -87.8469 272° West 274 315 8,000 -1,860 Descending Indianapolis Center
02:41PM 40.0400 -87.9433 275° West 270 311 6,100 -1,800 Descending Chicago Center
02:42PM 40.0556 -88.0397 282° West 265 305 4,300 -1,080 Descending Chicago Center
02:43PM 40.0700 -88.1294 282° West 264 304 3,900 -420 Descending Chicago Center